createdAt,value
2022-11-28T00:02:21.113Z,5.07
2022-11-28T00:04:42.748Z,5.32
2022-11-28T00:07:04.548Z,5.06
2022-11-28T00:09:26.206Z,4.96
2022-11-28T00:11:48.872Z,5.07
2022-11-28T00:14:10.810Z,5.23
2022-11-28T00:16:32.378Z,5.54
2022-11-28T00:18:55.068Z,5.45
2022-11-28T00:21:17.135Z,5.14
2022-11-28T00:23:38.700Z,5.19
2022-11-28T00:26:09.166Z,5.13
2022-11-28T00:28:30.612Z,5.23
2022-11-28T00:30:52.164Z,5.19
2022-11-28T00:33:13.607Z,4.93
2022-11-28T00:35:35.089Z,5.00
2022-11-28T00:37:56.538Z,5.35
2022-11-28T00:40:18.121Z,5.46
2022-11-28T00:42:39.585Z,5.61
2022-11-28T00:45:01.004Z,5.58
2022-11-28T00:47:22.474Z,5.49
2022-11-28T00:49:43.922Z,5.42
2022-11-28T00:52:05.443Z,5.53
2022-11-28T00:54:26.923Z,5.44
2022-11-28T00:56:48.395Z,5.61
2022-11-28T00:59:09.871Z,5.65
2022-11-28T01:01:38.212Z,5.70
2022-11-28T01:04:02.251Z,5.77
2022-11-28T01:06:29.643Z,5.87
2022-11-28T01:08:51.658Z,5.86
2022-11-28T01:11:13.933Z,5.85
2022-11-28T01:13:35.393Z,5.74
2022-11-28T01:15:58.714Z,5.77
2022-11-28T01:18:20.230Z,5.68
2022-11-28T01:20:41.752Z,5.77
2022-11-28T01:23:03.453Z,5.93
2022-11-28T01:25:25.295Z,5.80
2022-11-28T01:27:46.757Z,5.97
2022-11-28T01:30:08.475Z,5.87
2022-11-28T01:32:30.143Z,5.84
2022-11-28T01:34:51.692Z,5.96
2022-11-28T01:37:13.159Z,6.02
2022-11-28T01:39:34.607Z,5.85
2022-11-28T01:41:56.133Z,5.90
2022-11-28T01:44:41.222Z,5.64
2022-11-28T01:47:02.879Z,5.74
2022-11-28T01:49:30.254Z,5.73
2022-11-28T01:51:58.169Z,5.88
2022-11-28T01:54:22.535Z,5.93
2022-11-28T01:57:08.219Z,5.96
2022-11-28T01:59:35.721Z,6.01
2022-11-28T02:01:57.252Z,5.97
2022-11-28T02:04:19.072Z,5.77
2022-11-28T02:06:42.155Z,5.68
2022-11-28T02:09:03.989Z,5.68
2022-11-28T02:11:25.447Z,5.64
2022-11-28T02:14:05.742Z,5.70
2022-11-28T02:17:06.239Z,5.88
2022-11-28T02:19:59.538Z,6.02
2022-11-28T02:22:28.899Z,6.13
2022-11-28T02:25:05.369Z,6.15
2022-11-28T02:28:12.031Z,6.10
2022-11-28T02:31:15.082Z,6.23
2022-11-28T02:33:44.915Z,6.12
2022-11-28T02:36:26.363Z,6.13
2022-11-28T02:39:09.221Z,6.00
2022-11-28T02:41:43.224Z,6.06
2022-11-28T02:44:14.807Z,6.03
2022-11-28T02:46:36.280Z,5.86
2022-11-28T02:49:07.152Z,5.72
2022-11-28T02:51:32.311Z,5.79
2022-11-28T02:53:55.737Z,5.74
2022-11-28T02:56:17.691Z,5.80
2022-11-28T02:58:39.275Z,5.58
2022-11-28T03:01:00.838Z,5.53
2022-11-28T03:03:37.493Z,5.44
2022-11-28T03:06:09.640Z,5.23
2022-11-28T03:08:49.888Z,5.15
2022-11-28T03:11:31.401Z,5.25
2022-11-28T03:13:58.917Z,5.32
2022-11-28T03:16:30.669Z,5.46
2022-11-28T03:19:24.201Z,5.58
2022-11-28T03:21:57.210Z,5.71
2022-11-28T03:24:27.925Z,5.68
2022-11-28T03:27:27.851Z,5.91
2022-11-28T03:30:01.498Z,5.68
2022-11-28T03:32:33.556Z,5.40
2022-11-28T03:35:05.189Z,5.50
2022-11-28T03:37:31.637Z,5.43
2022-11-28T03:40:00.774Z,5.30
2022-11-28T03:42:25.282Z,5.23
2022-11-28T03:44:52.608Z,5.45
2022-11-28T03:47:14.076Z,5.42
2022-11-28T03:49:40.562Z,5.68
2022-11-28T03:52:05.565Z,5.49
2022-11-28T03:54:32.145Z,5.57
2022-11-28T03:57:11.699Z,5.49
2022-11-28T03:59:36.977Z,5.61
2022-11-28T04:02:16.972Z,5.50
2022-11-28T04:04:55.047Z,5.53
2022-11-28T04:07:52.399Z,5.67
2022-11-28T04:10:39.183Z,5.57
2022-11-28T04:13:18.050Z,5.73
2022-11-28T04:15:54.547Z,5.73
2022-11-28T04:18:21.226Z,5.54
2022-11-28T04:20:49.690Z,5.69
2022-11-28T04:23:15.228Z,5.60
2022-11-28T04:25:41.505Z,5.51
2022-11-28T04:28:13.104Z,5.66
2022-11-28T04:30:36.886Z,5.73
2022-11-28T04:33:02.663Z,5.44
2022-11-28T04:35:32.460Z,5.64
2022-11-28T04:37:55.615Z,5.44
2022-11-28T04:40:19.186Z,5.27
2022-11-28T04:42:51.424Z,5.51
2022-11-28T04:45:17.926Z,5.56
2022-11-28T04:47:39.862Z,5.65
2022-11-28T04:50:01.508Z,5.73
2022-11-28T04:52:44.442Z,5.97
2022-11-28T04:55:27.963Z,5.91
2022-11-28T04:57:57.332Z,5.65
2022-11-28T05:00:21.521Z,5.43
2022-11-28T05:02:45.897Z,5.38
2022-11-28T05:05:14.071Z,5.37
2022-11-28T05:07:35.617Z,5.62
2022-11-28T05:09:57.706Z,5.53
2022-11-28T05:12:19.253Z,5.80
2022-11-28T05:14:41.061Z,5.93
2022-11-28T05:17:02.719Z,5.67
2022-11-28T05:19:24.219Z,5.65
2022-11-28T05:21:45.752Z,5.72
2022-11-28T05:24:08.211Z,5.79
2022-11-28T05:26:32.273Z,5.45
2022-11-28T05:28:53.994Z,5.62
2022-11-28T05:31:15.787Z,5.88
2022-11-28T05:33:37.377Z,5.59
2022-11-28T05:36:13.221Z,5.48
2022-11-28T05:38:35.478Z,5.83
2022-11-28T05:40:56.899Z,5.53
2022-11-28T05:43:18.347Z,5.58
2022-11-28T05:45:44.230Z,5.59
2022-11-28T05:48:06.154Z,5.79
2022-11-28T05:50:28.330Z,5.76
2022-11-28T05:52:49.788Z,5.75
2022-11-28T05:55:11.233Z,5.72
2022-11-28T05:57:32.745Z,5.69
2022-11-28T05:59:54.181Z,5.63
2022-11-28T06:02:15.735Z,5.54
2022-11-28T06:04:38.124Z,5.60
2022-11-28T06:06:59.606Z,5.72
2022-11-28T06:09:25.657Z,5.63
2022-11-28T06:14:16.349Z,5.81
2022-11-28T06:16:38.038Z,5.76
2022-11-28T06:19:02.013Z,5.88
2022-11-28T06:21:23.685Z,6.01
2022-11-28T06:23:45.126Z,5.92
2022-11-28T06:26:07.464Z,5.88
2022-11-28T06:28:28.929Z,5.83
2022-11-28T06:30:50.410Z,5.69
2022-11-28T06:33:11.871Z,5.81
2022-11-28T06:35:33.503Z,5.59
2022-11-28T06:37:55.006Z,5.73
2022-11-28T06:40:16.662Z,5.98
2022-11-28T06:42:38.240Z,5.99
2022-11-28T06:44:59.715Z,5.84
2022-11-28T06:47:21.186Z,6.09
2022-11-28T06:49:42.904Z,6.31
2022-11-28T06:52:04.714Z,6.30
2022-11-28T06:54:26.170Z,6.41
2022-11-28T06:56:47.609Z,6.34
2022-11-28T06:59:11.983Z,6.33
2022-11-28T07:01:34.359Z,6.16
2022-11-28T07:03:56.128Z,6.26
2022-11-28T07:06:19.715Z,6.22
2022-11-28T07:08:41.889Z,6.18
2022-11-28T07:11:23.871Z,6.37
2022-11-28T07:13:46.133Z,6.43
2022-11-28T07:16:12.348Z,6.45
2022-11-28T07:18:34.337Z,6.64
2022-11-28T07:20:55.778Z,6.64
2022-11-28T07:23:17.252Z,6.63
2022-11-28T07:25:38.734Z,6.47
2022-11-28T07:28:00.516Z,6.50
2022-11-28T07:30:23.183Z,6.45
2022-11-28T07:32:44.618Z,6.55
2022-11-28T07:35:08.191Z,6.43
2022-11-28T07:37:29.642Z,6.44
2022-11-28T07:39:51.066Z,6.46
2022-11-28T07:42:12.573Z,6.40
2022-11-28T07:44:33.990Z,6.33
2022-11-28T07:46:55.473Z,6.44
2022-11-28T07:49:17.001Z,6.64
2022-11-28T07:51:39.138Z,6.56
2022-11-28T07:54:02.067Z,6.45
2022-11-28T07:56:35.012Z,6.31
2022-11-28T07:59:03.387Z,6.32
2022-11-28T08:01:28.160Z,6.33
2022-11-28T08:03:50.653Z,6.52
2022-11-28T08:06:16.651Z,6.58
2022-11-28T08:08:38.218Z,6.67
2022-11-28T08:11:04.811Z,6.66
2022-11-28T08:13:26.374Z,6.52
2022-11-28T08:15:47.822Z,6.91
2022-11-28T08:18:09.851Z,6.88
2022-11-28T08:20:31.364Z,6.92
2022-11-28T08:22:52.805Z,6.97
2022-11-28T08:25:14.305Z,6.77
2022-11-28T08:27:35.776Z,6.61
2022-11-28T08:29:57.195Z,6.68
2022-11-28T08:32:18.773Z,6.78
2022-11-28T08:34:40.208Z,6.68
2022-11-28T08:37:01.684Z,6.55
2022-11-28T08:39:24.872Z,6.47
2022-11-28T08:41:46.722Z,6.36
2022-11-28T08:44:08.163Z,6.16
2022-11-28T08:46:29.713Z,6.38
2022-11-28T08:48:52.647Z,6.60
2022-11-28T08:51:16.095Z,6.57
2022-11-28T08:53:37.532Z,6.73
2022-11-28T08:55:59.955Z,6.74
2022-11-28T08:58:21.485Z,6.86
2022-11-28T09:00:43.130Z,7.04
2022-11-28T09:03:05.289Z,7.26
2022-11-28T09:05:28.825Z,7.42
2022-11-28T09:07:50.284Z,7.42
2022-11-28T09:10:11.747Z,7.66
2022-11-28T09:12:33.183Z,7.81
2022-11-28T09:14:54.615Z,7.70
2022-11-28T09:17:16.147Z,7.55
2022-11-28T09:19:37.670Z,7.71
2022-11-28T09:21:59.186Z,7.58
2022-11-28T09:24:20.632Z,7.59
2022-11-28T09:26:42.582Z,7.73
2022-11-28T09:29:04.108Z,7.69
2022-11-28T09:31:25.812Z,7.68
2022-11-28T09:33:49.444Z,7.77
2022-11-28T09:36:13.560Z,7.78
2022-11-28T09:38:35.976Z,7.79
2022-11-28T09:40:57.660Z,7.97
2022-11-28T09:43:52.043Z,7.94
2022-11-28T09:46:25.131Z,7.99
2022-11-28T09:48:51.503Z,8.01
2022-11-28T09:51:31.337Z,8.15
2022-11-28T09:54:14.052Z,8.24
2022-11-28T09:56:35.672Z,8.33
2022-11-28T09:59:02.823Z,8.49
2022-11-28T10:02:17.725Z,8.32
2022-11-28T10:04:45.247Z,8.27
2022-11-28T10:07:39.283Z,8.25
2022-11-28T10:10:23.507Z,8.06
2022-11-28T10:12:47.835Z,7.94
2022-11-28T10:15:41.776Z,8.07
2022-11-28T10:18:23.449Z,7.92
2022-11-28T10:20:47.327Z,8.18
2022-11-28T10:23:31.018Z,8.03
2022-11-28T10:26:30.590Z,8.16
2022-11-28T10:28:56.079Z,8.24
2022-11-28T10:31:26.694Z,8.22
2022-11-28T10:33:57.873Z,8.43
2022-11-28T10:36:28.509Z,8.65
2022-11-28T10:38:50.079Z,8.60
2022-11-28T10:41:25.217Z,8.90
2022-11-28T10:44:10.462Z,8.69
2022-11-28T10:46:58.177Z,8.48
2022-11-28T10:49:44.705Z,8.53
2022-11-28T10:52:15.254Z,8.38
2022-11-28T10:54:49.661Z,8.44
2022-11-28T10:57:37.125Z,8.49
2022-11-28T11:00:12.189Z,8.47
2022-11-28T11:02:43.394Z,8.61
2022-11-28T11:05:07.006Z,8.85
2022-11-28T11:07:31.355Z,9.11
2022-11-28T11:09:52.999Z,8.99
2022-11-28T11:12:22.173Z,9.31
2022-11-28T11:14:44.775Z,9.57
2022-11-28T11:17:06.632Z,9.57
2022-11-28T11:19:34.227Z,9.73
2022-11-28T11:22:26.079Z,9.90
2022-11-28T11:25:12.305Z,9.67
2022-11-28T11:27:36.720Z,9.79
2022-11-28T11:29:59.045Z,9.89
2022-11-28T11:32:30.684Z,9.90
2022-11-28T11:34:53.556Z,10.04
2022-11-28T11:37:28.855Z,9.79
2022-11-28T11:39:52.158Z,9.38
2022-11-28T11:42:25.422Z,9.61
2022-11-28T11:44:46.921Z,9.36
2022-11-28T11:47:10.339Z,9.40
2022-11-28T11:49:37.554Z,9.65
2022-11-28T11:52:26.465Z,9.38
2022-11-28T11:54:56.922Z,9.45
2022-11-28T11:57:35.390Z,9.55
2022-11-28T12:00:02.455Z,9.53
2022-11-28T12:02:46.009Z,9.03
2022-11-28T12:05:20.499Z,8.76
2022-11-28T12:07:50.303Z,8.99
2022-11-28T12:10:17.672Z,8.99
2022-11-28T12:12:39.311Z,9.03
2022-11-28T12:15:00.758Z,8.98
2022-11-28T12:20:22.870Z,9.55
2022-11-28T12:23:00.208Z,9.40
2022-11-28T12:25:30.316Z,9.73
2022-11-28T12:28:29.420Z,9.92
2022-11-28T12:31:12.696Z,9.86
2022-11-28T12:33:55.167Z,9.67
2022-11-28T12:36:38.403Z,9.46
2022-11-28T12:39:19.644Z,9.64
2022-11-28T12:41:50.248Z,9.68
2022-11-28T12:44:14.565Z,9.76
2022-11-28T12:47:13.736Z,9.38
2022-11-28T12:49:44.185Z,9.06
2022-11-28T12:52:26.912Z,9.10
2022-11-28T12:55:17.601Z,9.04
2022-11-28T12:57:48.047Z,8.98
2022-11-28T13:00:18.359Z,8.83
2022-11-28T13:03:11.578Z,8.89
2022-11-28T13:05:59.136Z,8.73
2022-11-28T13:08:32.413Z,8.64
2022-11-28T13:11:03.270Z,8.56
2022-11-28T13:13:29.806Z,8.60
2022-11-28T13:16:27.640Z,8.60
2022-11-28T13:19:10.285Z,8.48
2022-11-28T13:21:48.528Z,8.42
2022-11-28T13:24:15.953Z,8.33
2022-11-28T13:26:49.162Z,8.50
2022-11-28T13:29:36.278Z,8.58
2022-11-28T13:32:26.131Z,8.63
2022-11-28T13:34:49.384Z,8.69
2022-11-28T13:40:30.569Z,8.52
2022-11-28T13:43:14.867Z,8.63
2022-11-28T13:45:41.389Z,8.58
2022-11-28T13:48:57.522Z,8.80
2022-11-28T13:51:19.128Z,8.62
2022-11-28T13:53:43.927Z,8.52
2022-11-28T13:56:05.312Z,8.55
2022-11-28T13:58:32.083Z,8.58
2022-11-28T14:01:17.772Z,8.63
2022-11-28T14:03:52.396Z,8.70
2022-11-28T14:06:19.360Z,8.82
2022-11-28T14:08:43.666Z,8.74
2022-11-28T14:11:14.211Z,8.72
2022-11-28T14:13:59.997Z,8.68
2022-11-28T14:16:33.951Z,8.65
2022-11-28T14:19:17.600Z,8.39
2022-11-28T14:22:18.038Z,8.56
2022-11-28T14:24:51.811Z,8.65
2022-11-28T14:27:21.906Z,8.66
2022-11-28T14:29:48.625Z,8.66
2022-11-28T14:32:31.044Z,8.38
2022-11-28T14:34:52.911Z,8.43
2022-11-28T14:37:52.738Z,8.33
2022-11-28T14:40:53.302Z,8.42
2022-11-28T14:43:23.814Z,8.26
2022-11-28T14:45:45.333Z,8.26
2022-11-28T14:48:28.948Z,8.32
2022-11-28T14:50:59.061Z,8.36
2022-11-28T14:53:44.630Z,8.21
2022-11-28T14:56:15.053Z,8.19
2022-11-28T14:58:36.543Z,8.25
2022-11-28T15:01:00.048Z,8.30
2022-11-28T15:03:57.524Z,8.23
2022-11-28T15:06:24.029Z,8.20
2022-11-28T15:08:48.300Z,8.18
2022-11-28T15:11:28.490Z,8.28
2022-11-28T15:14:10.668Z,8.20
2022-11-28T15:16:33.981Z,8.18
2022-11-28T15:19:00.510Z,8.14
2022-11-28T15:21:24.816Z,8.16
2022-11-28T15:23:47.008Z,8.09
2022-11-28T15:26:19.724Z,8.08
2022-11-28T15:28:41.969Z,8.10
2022-11-28T15:31:05.710Z,8.03
2022-11-28T15:33:28.540Z,8.08
2022-11-28T15:35:56.039Z,7.86
2022-11-28T15:38:17.718Z,7.88
2022-11-28T15:40:39.211Z,7.75
2022-11-28T15:43:06.614Z,7.59
2022-11-28T15:45:35.380Z,7.71
2022-11-28T15:47:57.650Z,7.82
2022-11-28T15:50:25.569Z,7.85
2022-11-28T15:53:02.386Z,7.95
2022-11-28T15:55:25.907Z,7.90
2022-11-28T15:57:47.409Z,7.76
2022-11-28T16:00:16.634Z,7.80
2022-11-28T16:02:39.732Z,7.92
2022-11-28T16:05:11.039Z,7.93
2022-11-28T16:07:39.001Z,7.90
2022-11-28T16:10:06.555Z,7.96
2022-11-28T16:12:28.771Z,8.05
2022-11-28T16:14:53.236Z,8.12
2022-11-28T16:17:26.066Z,7.90
2022-11-28T16:19:51.487Z,7.98
2022-11-28T16:22:19.597Z,8.05
2022-11-28T16:24:52.190Z,7.95
2022-11-28T16:27:36.710Z,7.50
2022-11-28T16:29:58.772Z,7.53
2022-11-28T16:32:26.083Z,7.25
2022-11-28T16:34:52.173Z,7.32
2022-11-28T16:37:14.460Z,7.23
2022-11-28T16:39:36.714Z,7.34
2022-11-28T16:42:12.613Z,7.09
2022-11-28T16:44:34.345Z,7.25
2022-11-28T16:46:57.927Z,6.93
2022-11-28T16:49:43.820Z,7.05
2022-11-28T16:52:27.321Z,7.16
2022-11-28T16:54:50.216Z,6.97
2022-11-28T16:57:14.859Z,7.11
2022-11-28T16:59:36.550Z,7.12
2022-11-28T17:01:58.070Z,7.20
2022-11-28T17:04:27.990Z,7.01
2022-11-28T17:06:50.300Z,7.23
2022-11-28T17:09:13.586Z,7.25
2022-11-28T17:11:37.801Z,7.21
2022-11-28T17:14:02.430Z,7.24
2022-11-28T17:16:26.254Z,7.25
2022-11-28T17:18:48.460Z,7.19
2022-11-28T17:21:12.125Z,6.93
2022-11-28T17:23:33.672Z,7.24
2022-11-28T17:25:55.138Z,7.19
2022-11-28T17:28:21.570Z,7.12
2022-11-28T17:30:44.716Z,7.26
2022-11-28T17:33:06.201Z,7.19
2022-11-28T17:35:34.378Z,7.12
2022-11-28T17:37:55.831Z,7.01
2022-11-28T17:40:36.737Z,7.25
2022-11-28T17:42:58.833Z,7.36
2022-11-28T17:45:22.055Z,7.49
2022-11-28T17:47:43.514Z,7.21
2022-11-28T17:50:05.651Z,7.31
2022-11-28T17:52:30.272Z,7.23
2022-11-28T17:54:51.946Z,7.19
2022-11-28T17:57:13.411Z,7.16
2022-11-28T17:59:35.987Z,7.23
2022-11-28T18:01:57.717Z,7.25
2022-11-28T18:04:19.516Z,7.39
2022-11-28T18:06:45.347Z,7.28
2022-11-28T18:09:11.706Z,7.27
2022-11-28T18:11:35.736Z,7.42
2022-11-28T18:13:58.163Z,7.28
2022-11-28T18:16:22.889Z,7.52
2022-11-28T18:18:44.679Z,7.41
2022-11-28T18:21:08.643Z,7.48
2022-11-28T18:23:30.115Z,7.64
2022-11-28T18:25:51.589Z,7.59
2022-11-28T18:28:18.831Z,7.31
2022-11-28T18:30:42.581Z,7.35
2022-11-28T18:33:04.121Z,7.41
2022-11-28T18:35:25.535Z,7.50
2022-11-28T18:37:47.013Z,7.60
2022-11-28T18:40:09.460Z,7.65
2022-11-28T18:42:31.393Z,7.75
2022-11-28T18:44:52.850Z,7.81
2022-11-28T18:47:14.288Z,7.77
2022-11-28T18:49:35.715Z,7.74
2022-11-28T18:51:57.213Z,7.80
2022-11-28T18:54:21.430Z,7.79
2022-11-28T18:56:43.197Z,7.94
2022-11-28T18:59:04.756Z,7.88
2022-11-28T19:01:30.256Z,7.84
2022-11-28T19:03:55.380Z,7.79
2022-11-28T19:06:16.860Z,7.75
2022-11-28T19:08:39.258Z,7.73
2022-11-28T19:11:09.010Z,7.71
2022-11-28T19:13:30.487Z,7.96
2022-11-28T19:15:51.909Z,7.86
2022-11-28T19:18:13.698Z,7.81
2022-11-28T19:20:35.322Z,7.74
2022-11-28T19:22:56.769Z,7.71
2022-11-28T19:25:18.190Z,7.72
2022-11-28T19:27:39.640Z,7.80
2022-11-28T19:30:01.061Z,7.74
2022-11-28T19:32:22.573Z,7.64
2022-11-28T19:34:44.153Z,7.68
2022-11-28T19:37:05.627Z,7.66
2022-11-28T19:39:27.081Z,7.59
2022-11-28T19:41:49.501Z,7.71
2022-11-28T19:44:12.122Z,7.72
2022-11-28T19:46:35.885Z,7.69
2022-11-28T19:48:57.699Z,7.73
2022-11-28T19:51:20.146Z,7.66
2022-11-28T19:53:42.680Z,7.67
2022-11-28T19:56:06.282Z,7.68
2022-11-28T19:58:29.182Z,7.65
2022-11-28T20:00:50.659Z,7.59
2022-11-28T20:03:12.129Z,7.57
2022-11-28T20:05:35.207Z,7.69
2022-11-28T20:07:58.582Z,7.78
2022-11-28T20:10:20.378Z,7.72
2022-11-28T20:12:42.231Z,7.79
2022-11-28T20:15:04.270Z,7.77
2022-11-28T20:17:25.710Z,7.77
2022-11-28T20:19:48.047Z,7.56
2022-11-28T20:22:09.524Z,7.52
2022-11-28T20:24:31.160Z,7.58
2022-11-28T20:26:52.663Z,7.66
2022-11-28T20:29:16.530Z,7.77
2022-11-28T20:31:45.554Z,7.69
2022-11-28T20:34:07.618Z,7.55
2022-11-28T20:36:30.569Z,7.55
2022-11-28T20:38:53.363Z,7.40
2022-11-28T20:41:16.063Z,7.25
2022-11-28T20:43:39.165Z,7.38
2022-11-28T20:46:02.797Z,7.54
2022-11-28T20:48:24.284Z,7.56
2022-11-28T20:50:45.740Z,7.49
2022-11-28T20:53:07.239Z,7.58
2022-11-28T20:55:28.678Z,7.64
2022-11-28T20:57:50.111Z,7.62
2022-11-28T21:00:12.204Z,7.74
2022-11-28T21:02:33.721Z,7.81
2022-11-28T21:04:55.188Z,7.89
2022-11-28T21:07:16.728Z,7.91
2022-11-28T21:09:38.177Z,7.93
2022-11-28T21:11:59.764Z,7.85
2022-11-28T21:14:21.302Z,7.75
2022-11-28T21:16:43.685Z,7.70
2022-11-28T21:19:08.928Z,7.74
2022-11-28T21:21:32.685Z,7.78
2022-11-28T21:24:09.619Z,7.87
2022-11-28T21:26:37.619Z,7.83
2022-11-28T21:29:06.183Z,7.78
2022-11-28T21:31:30.416Z,7.88
2022-11-28T21:33:54.404Z,7.92
2022-11-28T21:36:16.355Z,7.82
2022-11-28T21:38:37.800Z,7.80
2022-11-28T21:41:00.030Z,7.62
2022-11-28T21:43:22.497Z,7.76
2022-11-28T21:45:43.981Z,7.78
2022-11-28T21:48:05.608Z,7.86
2022-11-28T21:50:27.027Z,7.90
2022-11-28T21:52:48.474Z,7.81
2022-11-28T21:55:09.909Z,7.91
2022-11-28T21:57:31.456Z,7.98
2022-11-28T21:59:52.901Z,7.96
2022-11-28T22:02:14.716Z,7.83
2022-11-28T22:04:36.244Z,7.82
2022-11-28T22:06:57.752Z,7.84
2022-11-28T22:09:19.196Z,7.82
2022-11-28T22:11:40.669Z,7.96
2022-11-28T22:14:02.140Z,8.02
2022-11-28T22:16:25.824Z,8.00
2022-11-28T22:18:48.432Z,8.00
2022-11-28T22:21:49.449Z,7.95
2022-11-28T22:23:51.922Z,7.95
2022-11-28T22:26:13.421Z,7.95
2022-11-28T22:28:37.613Z,7.89
2022-11-28T22:30:59.853Z,8.04
2022-11-28T22:33:21.516Z,7.85
2022-11-28T22:35:43.032Z,7.93
2022-11-28T22:38:04.505Z,7.98
2022-11-28T22:40:25.934Z,8.00
2022-11-28T22:42:47.371Z,8.00
2022-11-28T22:45:09.699Z,8.09
2022-11-28T22:47:32.461Z,8.05
2022-11-28T22:49:53.880Z,8.10
2022-11-28T22:52:15.294Z,8.02
2022-11-28T22:54:36.880Z,8.03
2022-11-28T22:56:58.306Z,8.06
2022-11-28T22:59:19.809Z,8.09
2022-11-28T23:01:41.908Z,8.08
2022-11-28T23:04:03.708Z,8.02
2022-11-28T23:06:28.387Z,7.97
2022-11-28T23:08:50.586Z,7.82
2022-11-28T23:11:15.088Z,7.87
2022-11-28T23:13:37.685Z,7.88
2022-11-28T23:16:16.326Z,8.03
2022-11-28T23:18:37.845Z,8.05
2022-11-28T23:20:59.283Z,7.99
2022-11-28T23:23:20.726Z,8.05
2022-11-28T23:25:42.157Z,8.07
2022-11-28T23:28:03.708Z,8.02
2022-11-28T23:30:25.381Z,8.12
2022-11-28T23:32:46.864Z,8.15
2022-11-28T23:35:08.675Z,8.22
2022-11-28T23:37:30.128Z,8.10
2022-11-28T23:39:51.549Z,8.11
2022-11-28T23:42:12.975Z,7.96
2022-11-28T23:44:34.485Z,7.90
2022-11-28T23:46:55.943Z,7.88
2022-11-28T23:49:17.410Z,7.83
2022-11-28T23:51:40.568Z,7.83
2022-11-28T23:54:02.188Z,7.96
2022-11-28T23:56:26.461Z,7.97
2022-11-28T23:58:48.710Z,7.97
